Time;durP1;ratioP1;P1;durP2;ratioP2;P2;SDS_P1;SDS_P2;PMS_P1;PMS_P2;Temp;Humidity;BMP_temperature;BMP_pressure;BME280_temperature;BME280_humidity;BME280_pressure;Samples;Min_cycle;Max_cycle;Signal;HPM_P1;HPM_P2
2024/04/19 00:02:18;;;;;;;11.03;5.77;;;5.20;99.90;;;;;;5428070;26;20479;-70
2024/04/19 00:04:45;;;;;;;10.80;5.07;;;5.10;99.90;;;;;;5432480;26;20529;-71
2024/04/19 00:07:19;;;;;;;11.20;6.00;;;5.20;99.90;;;;;;5447027;26;20470;-71
2024/04/19 00:09:46;;;;;;;13.23;6.37;;;5.30;99.90;;;;;;5446277;26;21002;-70
2024/04/19 00:12:16;;;;;;;11.63;5.67;;;5.30;99.90;;;;;;5445541;26;20575;-72
2024/04/19 00:14:43;;;;;;;12.57;6.00;;;5.20;99.90;;;;;;5425677;26;20517;-70
2024/04/19 00:17:12;;;;;;;11.30;5.33;;;5.20;99.90;;;;;;5433171;26;20540;-71
2024/04/19 00:19:39;;;;;;;11.23;5.20;;;5.10;99.90;;;;;;5445156;26;20526;-71
2024/04/19 00:22:09;;;;;;;12.27;6.57;;;5.00;99.90;;;;;;5438731;26;20555;-71
2024/04/19 00:24:39;;;;;;;10.20;5.30;;;5.00;99.90;;;;;;5445893;26;21207;-70
2024/04/19 00:27:08;;;;;;;12.17;5.70;;;5.00;99.90;;;;;;5439137;26;20475;-70
2024/04/19 00:29:36;;;;;;;11.70;5.90;;;5.00;99.90;;;;;;5445693;26;20469;-70
2024/04/19 00:32:06;;;;;;;10.60;4.90;;;4.90;99.90;;;;;;5446303;26;20474;-72
2024/04/19 00:34:33;;;;;;;11.40;5.30;;;4.90;99.90;;;;;;5437541;26;20580;-71
2024/04/19 00:37:03;;;;;;;11.50;5.83;;;4.90;99.90;;;;;;5446701;26;20477;-70
2024/04/19 00:39:30;;;;;;;13.77;6.00;;;4.90;99.90;;;;;;5445335;26;20551;-68
2024/04/19 00:42:02;;;;;;;11.37;5.40;;;4.90;99.90;;;;;;5446453;26;20470;-71
2024/04/19 00:44:31;;;;;;;11.77;6.40;;;4.80;99.90;;;;;;5445654;26;20529;-71
2024/04/19 00:47:01;;;;;;;12.00;6.00;;;4.80;99.90;;;;;;5445968;26;20481;-70
2024/04/19 00:49:28;;;;;;;11.30;5.43;;;4.80;99.90;;;;;;5444003;26;20532;-70
2024/04/19 00:51:59;;;;;;;11.10;5.40;;;4.80;99.90;;;;;;5443663;26;20928;-70
2024/04/19 00:54:26;;;;;;;12.20;5.57;;;4.90;99.90;;;;;;5441364;26;21137;-71
2024/04/19 00:56:57;;;;;;;11.23;4.90;;;4.90;99.90;;;;;;5446087;26;20461;-71
2024/04/19 00:59:27;;;;;;;10.60;5.30;;;4.90;99.90;;;;;;5445459;26;20462;-71
2024/04/19 01:01:58;;;;;;;11.37;4.77;;;4.90;99.90;;;;;;5436572;26;20513;-71
2024/04/19 01:04:25;;;;;;;10.17;5.00;;;4.90;99.90;;;;;;5433779;26;20582;-70
2024/04/19 01:06:55;;;;;;;13.23;4.80;;;4.80;99.90;;;;;;5446298;26;21019;-72
2024/04/19 01:09:22;;;;;;;10.57;5.23;;;4.80;99.90;;;;;;5445119;26;20473;-70
2024/04/19 01:11:52;;;;;;;10.60;5.33;;;4.90;99.90;;;;;;5454028;26;20455;-70
2024/04/19 01:14:19;;;;;;;11.77;5.00;;;4.90;99.90;;;;;;5444843;26;20553;-71
2024/04/19 01:16:51;;;;;;;11.70;5.07;;;4.90;99.90;;;;;;5444113;26;20549;-71
2024/04/19 01:19:18;;;;;;;9.77;4.33;;;5.00;99.90;;;;;;5445352;26;20524;-70
2024/04/19 01:21:48;;;;;;;9.63;4.53;;;5.00;99.90;;;;;;5445094;26;20470;-70
2024/04/19 01:24:31;;;;;;;13.17;5.30;;;5.10;99.90;;;;;;5444887;26;20514;-70
2024/04/19 01:27:03;;;;;;;11.03;4.97;;;5.10;99.90;;;;;;5445061;26;20449;-71
2024/04/19 01:29:30;;;;;;;10.13;4.50;;;5.10;99.90;;;;;;5444400;26;20477;-69
2024/04/19 01:32:01;;;;;;;9.13;3.93;;;5.20;99.90;;;;;;5445099;26;20469;-70
2024/04/19 01:34:28;;;;;;;14.03;4.60;;;5.20;99.90;;;;;;5444580;26;20530;-71
2024/04/19 01:36:58;;;;;;;10.47;5.03;;;5.20;99.90;;;;;;5445069;26;20478;-71
2024/04/19 01:39:26;;;;;;;10.90;4.60;;;5.20;99.90;;;;;;5443995;26;20526;-71
2024/04/19 01:41:57;;;;;;;9.90;4.40;;;5.30;99.90;;;;;;5444888;26;20477;-71
2024/04/19 01:44:27;;;;;;;9.57;4.43;;;5.40;99.90;;;;;;5444724;26;20470;-71
2024/04/19 01:46:56;;;;;;;10.53;4.70;;;5.40;99.90;;;;;;5447598;26;20469;-70
2024/04/19 01:49:23;;;;;;;13.80;5.13;;;5.40;99.90;;;;;;5447817;26;20475;-72
2024/04/19 01:51:53;;;;;;;10.93;4.70;;;5.40;99.90;;;;;;5448142;26;20547;-71
2024/04/19 01:54:20;;;;;;;11.07;5.30;;;5.40;99.90;;;;;;5448242;26;21144;-71
2024/04/19 01:56:52;;;;;;;11.37;5.10;;;5.30;99.90;;;;;;5448309;26;20466;-70
2024/04/19 01:59:21;;;;;;;10.17;5.23;;;5.30;99.90;;;;;;5447795;26;20472;-69
2024/04/19 02:01:53;;;;;;;10.87;5.13;;;5.30;99.90;;;;;;5448274;26;20905;-71
2024/04/19 02:04:21;;;;;;;10.43;4.60;;;5.30;99.90;;;;;;5447642;26;20476;-71
2024/04/19 02:06:50;;;;;;;10.33;4.20;;;5.10;99.90;;;;;;5447831;26;21060;-71
2024/04/19 02:09:17;;;;;;;10.90;4.63;;;5.20;99.90;;;;;;5447869;26;20532;-71
2024/04/19 02:11:47;;;;;;;10.13;5.03;;;5.10;99.90;;;;;;5447432;26;20461;-71
2024/04/19 02:14:14;;;;;;;9.80;4.70;;;5.00;99.90;;;;;;5447180;26;20477;-71
2024/04/19 02:16:44;;;;;;;11.30;5.20;;;5.10;99.90;;;;;;5447424;26;20472;-70
2024/04/19 02:19:14;;;;;;;10.63;4.90;;;5.20;99.90;;;;;;5447366;26;20521;-71
2024/04/19 02:21:43;;;;;;;10.53;4.90;;;5.20;99.90;;;;;;5447858;26;20464;-70
2024/04/19 02:24:11;;;;;;;10.40;5.07;;;5.10;99.90;;;;;;5447446;26;20530;-71
2024/04/19 02:26:40;;;;;;;10.70;5.00;;;5.10;99.90;;;;;;5447673;26;20476;-70
2024/04/19 02:31:56;;;;;;;10.80;4.77;;;5.10;99.90;;;;;;5447477;26;20508;-73
2024/04/19 02:34:28;;;;;;;15.13;4.90;;;5.00;99.90;;;;;;5447150;26;21474;-71
2024/04/19 02:36:58;;;;;;;9.57;4.57;;;4.90;99.90;;;;;;5447995;26;20870;-71
2024/04/19 02:39:28;;;;;;;10.77;4.97;;;4.90;99.90;;;;;;5447235;26;20463;-70
2024/04/19 02:41:57;;;;;;;10.87;4.37;;;4.90;99.90;;;;;;5446943;26;20525;-70
2024/04/19 02:44:27;;;;;;;10.47;4.73;;;5.00;99.90;;;;;;5446775;26;20471;-70
2024/04/19 02:46:57;;;;;;;9.83;4.63;;;5.20;99.90;;;;;;5447054;26;20467;-70
2024/04/19 02:49:29;;;;;;;10.40;3.90;;;5.30;99.90;;;;;;5447035;26;20528;-70
2024/04/19 02:51:59;;;;;;;12.10;4.90;;;5.50;99.90;;;;;;5447079;26;20481;-70
2024/04/19 02:54:28;;;;;;;11.47;5.70;;;5.50;99.90;;;;;;5446900;26;20539;-71
2024/04/19 02:56:58;;;;;;;9.30;3.63;;;5.60;99.90;;;;;;5447240;26;21032;-70
2024/04/19 02:59:28;;;;;;;9.30;3.80;;;5.50;99.90;;;;;;5446630;26;20929;-70
2024/04/19 03:01:57;;;;;;;10.47;3.80;;;5.60;99.90;;;;;;5447902;26;20465;-70
2024/04/19 03:04:30;;;;;;;9.90;4.40;;;5.60;99.90;;;;;;5446553;26;21439;-70
2024/04/19 03:06:59;;;;;;;10.67;3.67;;;5.60;99.90;;;;;;5447344;26;20464;-71
2024/04/19 03:09:29;;;;;;;9.60;3.57;;;5.70;99.90;;;;;;5446598;26;20989;-71
2024/04/19 03:11:59;;;;;;;11.27;4.70;;;5.80;99.90;;;;;;5446694;26;20558;-71
2024/04/19 03:14:29;;;;;;;10.10;4.23;;;5.80;99.90;;;;;;5446467;26;20524;-71
2024/04/19 03:16:59;;;;;;;11.50;4.70;;;5.80;99.90;;;;;;5447023;26;20455;-71
2024/04/19 03:19:31;;;;;;;11.50;4.40;;;5.80;99.90;;;;;;5446569;26;20523;-71
2024/04/19 03:22:01;;;;;;;10.30;4.77;;;5.90;99.90;;;;;;5447443;26;20463;-71
2024/04/19 03:24:30;;;;;;;9.93;4.47;;;6.00;99.90;;;;;;5446516;26;20466;-72
2024/04/19 03:27:00;;;;;;;9.10;4.03;;;6.00;99.90;;;;;;5447047;26;20456;-72
2024/04/19 03:29:30;;;;;;;9.40;4.23;;;6.00;99.90;;;;;;5446417;26;20526;-72
2024/04/19 03:31:59;;;;;;;11.13;4.40;;;5.90;99.90;;;;;;5439240;26;20845;-71
2024/04/19 03:34:32;;;;;;;8.93;3.53;;;6.00;99.90;;;;;;5446041;26;20507;-72
2024/04/19 03:37:01;;;;;;;10.07;4.37;;;6.00;99.90;;;;;;5446959;26;20814;-72
2024/04/19 03:39:31;;;;;;;12.97;4.83;;;6.00;99.90;;;;;;5446881;26;20544;-72
2024/04/19 03:42:02;;;;;;;10.40;4.30;;;6.10;99.90;;;;;;5447170;26;20468;-72
2024/04/19 03:47:17;;;;;;;11.87;4.90;;;6.20;99.90;;;;;;5446767;26;20789;-72
2024/04/19 03:49:49;;;;;;;9.80;4.27;;;6.20;99.90;;;;;;5446793;26;21165;-71
2024/04/19 03:52:19;;;;;;;11.30;4.30;;;6.20;99.90;;;;;;5447000;26;21109;-72
2024/04/19 03:54:49;;;;;;;12.27;4.90;;;6.10;99.90;;;;;;5445435;26;20524;-72
2024/04/19 03:57:19;;;;;;;12.40;5.17;;;6.10;99.90;;;;;;5446876;26;20481;-72
2024/04/19 03:59:48;;;;;;;11.53;5.17;;;6.10;99.90;;;;;;5446467;26;21144;-72
2024/04/19 04:02:15;;;;;;;10.70;4.63;;;6.10;99.90;;;;;;5446573;26;21063;-71
2024/04/19 04:04:50;;;;;;;12.40;4.87;;;6.10;99.90;;;;;;5446454;26;20585;-71
2024/04/19 04:07:19;;;;;;;11.80;4.73;;;6.20;99.90;;;;;;5447116;26;20520;-72
2024/04/19 04:09:49;;;;;;;11.87;4.70;;;6.20;99.90;;;;;;5445596;26;20535;-71
2024/04/19 04:12:18;;;;;;;9.60;3.97;;;6.20;99.90;;;;;;5447053;26;20917;-71
2024/04/19 04:14:49;;;;;;;11.13;4.90;;;6.10;99.90;;;;;;5446172;26;20473;-71
2024/04/19 04:17:18;;;;;;;9.97;4.00;;;6.10;99.90;;;;;;5446114;26;20462;-71
2024/04/19 04:19:51;;;;;;;10.83;4.40;;;6.20;99.90;;;;;;5446193;26;20467;-71
2024/04/19 04:22:20;;;;;;;9.43;4.00;;;6.20;99.90;;;;;;5446026;26;20473;-72
2024/04/19 04:24:50;;;;;;;10.53;4.53;;;6.20;99.90;;;;;;5445513;26;20460;-71
2024/04/19 04:27:20;;;;;;;11.10;4.60;;;6.20;99.90;;;;;;5446076;26;20875;-71
2024/04/19 04:29:49;;;;;;;11.13;4.40;;;6.20;99.90;;;;;;5445641;26;20519;-71
2024/04/19 04:32:20;;;;;;;11.17;5.13;;;6.20;99.90;;;;;;5438093;26;20525;-71
2024/04/19 04:34:53;;;;;;;10.47;4.40;;;6.30;99.90;;;;;;5445481;26;20589;-71
2024/04/19 04:37:22;;;;;;;10.63;4.57;;;6.30;99.90;;;;;;5446468;26;20463;-72
2024/04/19 04:39:52;;;;;;;12.77;5.07;;;6.20;99.90;;;;;;5445238;26;20470;-71
2024/04/19 04:42:22;;;;;;;12.90;5.10;;;6.20;99.90;;;;;;5444020;26;20556;-71
2024/04/19 04:44:51;;;;;;;12.07;5.03;;;6.30;99.90;;;;;;5445471;26;20856;-70
2024/04/19 04:47:21;;;;;;;11.57;5.37;;;6.20;99.90;;;;;;5450707;26;20514;-70
2024/04/19 04:49:53;;;;;;;10.63;5.20;;;6.20;99.90;;;;;;5455475;26;20520;-70
2024/04/19 04:52:24;;;;;;;11.10;5.00;;;6.30;99.90;;;;;;5446328;26;21383;-70
2024/04/19 04:54:54;;;;;;;14.63;5.70;;;6.20;99.90;;;;;;5430733;26;21133;-71
2024/04/19 04:57:24;;;;;;;17.80;5.30;;;6.30;99.90;;;;;;5445390;26;20465;-71
2024/04/19 04:59:54;;;;;;;11.47;5.33;;;6.40;99.90;;;;;;5444605;26;20523;-71
2024/04/19 05:02:24;;;;;;;11.90;4.63;;;6.30;99.90;;;;;;5435278;26;20514;-71
2024/04/19 05:04:56;;;;;;;11.03;4.93;;;6.40;99.90;;;;;;5435754;26;20810;-70
2024/04/19 05:07:29;;;;;;;12.00;4.93;;;6.40;99.90;;;;;;5428950;26;20655;-70
2024/04/19 05:09:58;;;;;;;13.30;5.40;;;6.40;99.90;;;;;;5444882;26;20540;-71
2024/04/19 05:12:28;;;;;;;10.70;4.87;;;6.40;99.90;;;;;;5445783;26;20467;-71
2024/04/19 05:14:58;;;;;;;14.10;5.30;;;6.40;99.90;;;;;;5445345;26;20583;-70
2024/04/19 05:17:29;;;;;;;14.57;5.73;;;6.50;99.90;;;;;;5444830;26;20866;-71
2024/04/19 05:20:02;;;;;;;11.60;5.20;;;6.50;99.90;;;;;;5445396;26;20517;-70
2024/04/19 05:22:33;;;;;;;12.70;4.80;;;6.50;99.90;;;;;;5448985;26;20478;-69
2024/04/19 05:25:02;;;;;;;14.97;6.13;;;6.60;99.90;;;;;;5446885;26;20471;-70
2024/04/19 05:27:32;;;;;;;14.50;4.60;;;6.50;99.90;;;;;;5448858;26;20800;-69
2024/04/19 05:30:02;;;;;;;12.60;5.13;;;6.50;99.90;;;;;;5448628;26;20529;-70
2024/04/19 05:32:31;;;;;;;9.60;4.60;;;6.60;99.90;;;;;;5448693;26;20544;-71
2024/04/19 05:35:04;;;;;;;12.70;6.00;;;6.60;99.90;;;;;;5448598;26;20464;-70
2024/04/19 05:37:34;;;;;;;12.27;5.57;;;6.60;99.90;;;;;;5448597;26;20474;-70
2024/04/19 05:40:04;;;;;;;10.67;5.30;;;6.60;99.90;;;;;;5448238;26;20527;-70
2024/04/19 05:42:33;;;;;;;12.33;5.43;;;6.60;99.90;;;;;;5448642;26;20975;-70
2024/04/19 05:45:04;;;;;;;9.80;4.50;;;6.70;99.90;;;;;;5453159;26;20782;-70
2024/04/19 05:47:33;;;;;;;11.30;4.30;;;6.70;99.90;;;;;;5446253;26;20463;-69
2024/04/19 05:50:06;;;;;;;11.20;4.63;;;6.80;99.90;;;;;;5447215;26;20539;-70
2024/04/19 05:52:36;;;;;;;14.10;5.17;;;6.90;99.90;;;;;;5447408;26;20535;-70
2024/04/19 05:55:06;;;;;;;10.37;4.37;;;6.90;99.90;;;;;;5447465;26;20499;-70
2024/04/19 05:57:36;;;;;;;14.60;4.80;;;7.10;99.90;;;;;;5447619;26;21185;-70
2024/04/19 06:00:07;;;;;;;10.93;5.40;;;7.10;99.90;;;;;;5447243;26;20490;-70
2024/04/19 06:02:37;;;;;;;9.60;4.20;;;7.20;99.90;;;;;;5448131;26;20553;-70
2024/04/19 06:05:10;;;;;;;10.80;4.17;;;7.20;99.90;;;;;;5447953;26;20511;-69
2024/04/19 06:07:40;;;;;;;10.73;4.43;;;7.30;99.90;;;;;;5448201;26;20475;-70
2024/04/19 06:10:10;;;;;;;8.83;3.53;;;7.30;99.90;;;;;;5447768;26;20972;-70
2024/04/19 06:12:39;;;;;;;9.60;4.20;;;7.30;99.90;;;;;;5447828;26;20575;-70
2024/04/19 06:15:09;;;;;;;10.73;5.07;;;7.30;99.90;;;;;;5447913;26;20513;-70
2024/04/19 06:17:39;;;;;;;12.33;4.10;;;7.30;99.90;;;;;;5447914;26;20518;-69
2024/04/19 06:20:12;;;;;;;10.23;3.43;;;7.10;99.90;;;;;;5447990;26;20546;-71
2024/04/19 06:34:13;;;;;;;10.73;3.80;;;7.10;99.90;;;;;;5485739;25;20772;-68
2024/04/19 06:36:43;;;;;;;9.63;3.63;;;7.50;99.90;;;;;;5461699;26;20573;-72
2024/04/19 06:39:22;;;;;;;11.00;3.60;;;7.60;99.90;;;;;;5464475;26;20918;-72
2024/04/19 06:41:52;;;;;;;8.10;3.30;;;7.70;99.90;;;;;;5464083;26;20486;-71
2024/04/19 06:44:22;;;;;;;9.10;3.60;;;7.70;99.90;;;;;;5459327;26;20525;-72
2024/04/19 06:46:51;;;;;;;11.17;3.77;;;7.70;99.90;;;;;;5463226;26;20467;-72
2024/04/19 06:49:24;;;;;;;7.80;3.00;;;8.00;99.90;;;;;;5462260;26;20580;-69
2024/04/19 06:51:54;;;;;;;10.47;3.53;;;8.10;99.90;;;;;;5466911;26;20470;-72
2024/04/19 06:54:23;;;;;;;12.77;3.90;;;8.10;99.90;;;;;;5464065;26;20514;-71
2024/04/19 06:56:54;;;;;;;8.70;3.40;;;8.00;99.90;;;;;;5464234;26;20588;-71
2024/04/19 06:59:23;;;;;;;9.07;3.07;;;8.00;99.90;;;;;;5464736;26;20517;-70
2024/04/19 07:01:53;;;;;;;7.90;2.90;;;7.90;99.90;;;;;;5464693;26;21145;-71
2024/04/19 07:04:26;;;;;;;10.30;3.60;;;8.00;99.90;;;;;;5465062;26;20468;-71
2024/04/19 07:06:56;;;;;;;9.70;3.87;;;8.00;99.90;;;;;;5464500;26;20580;-71
2024/04/19 07:09:25;;;;;;;9.17;3.47;;;8.10;99.90;;;;;;5465039;26;20897;-71
2024/04/19 07:11:55;;;;;;;10.07;4.10;;;8.10;99.90;;;;;;5464955;26;20506;-71
2024/04/19 07:14:25;;;;;;;9.20;3.40;;;8.20;99.90;;;;;;5463901;26;21019;-71
2024/04/19 07:16:55;;;;;;;8.43;3.03;;;8.20;99.90;;;;;;5464231;26;20469;-70
2024/04/19 07:19:27;;;;;;;9.83;3.27;;;8.10;99.90;;;;;;5463840;26;20467;-71
2024/04/19 07:21:57;;;;;;;8.43;3.17;;;7.90;99.90;;;;;;5463340;26;21105;-70
2024/04/19 07:24:27;;;;;;;10.70;3.97;;;7.70;99.90;;;;;;5476877;26;20597;-71
2024/04/19 07:26:57;;;;;;;11.23;4.03;;;7.80;99.90;;;;;;5489185;26;20477;-71
2024/04/19 07:29:27;;;;;;;9.03;4.03;;;7.80;99.90;;;;;;5476118;25;20927;-70
2024/04/19 07:31:57;;;;;;;9.70;3.70;;;7.80;99.90;;;;;;5475017;26;21054;-71
2024/04/19 07:34:29;;;;;;;11.50;3.80;;;7.70;99.90;;;;;;5467552;26;20538;-70
2024/04/19 07:36:59;;;;;;;8.40;3.37;;;7.60;99.90;;;;;;5464858;26;20468;-71
2024/04/19 07:39:29;;;;;;;9.60;4.33;;;7.60;99.90;;;;;;5461503;26;20531;-71
2024/04/19 07:41:59;;;;;;;8.80;3.57;;;7.40;99.90;;;;;;5458298;26;20463;-71
2024/04/19 07:44:29;;;;;;;9.77;3.93;;;7.20;99.90;;;;;;5456748;26;20940;-70
2024/04/19 07:59:19;;;;;;;12.10;4.17;;;7.10;99.90;;;;;;5412019;26;20690;-70
2024/04/19 08:01:49;;;;;;;9.27;3.67;;;7.00;99.90;;;;;;5366480;26;20584;-70
2024/04/19 08:04:20;;;;;;;11.93;3.90;;;6.90;99.90;;;;;;5369341;26;21376;-70
2024/04/19 08:06:50;;;;;;;8.83;3.90;;;6.80;99.90;;;;;;5364417;26;20581;-70
2024/04/19 08:09:20;;;;;;;9.20;4.07;;;6.80;99.90;;;;;;5356647;26;20485;-70
2024/04/19 08:11:49;;;;;;;9.70;4.07;;;6.70;99.90;;;;;;5358121;26;20469;-70
2024/04/19 08:14:22;;;;;;;11.80;3.93;;;6.60;99.90;;;;;;5356485;26;20471;-70
2024/04/19 08:16:51;;;;;;;10.93;3.77;;;6.60;99.90;;;;;;5360368;26;20528;-70
2024/04/19 08:19:21;;;;;;;9.73;3.57;;;6.50;99.90;;;;;;5356122;26;20486;-69
2024/04/19 08:21:51;;;;;;;8.70;3.63;;;6.40;99.90;;;;;;5358723;26;20524;-70
2024/04/19 08:24:21;;;;;;;8.70;2.93;;;6.40;99.90;;;;;;5356980;26;21133;-71
2024/04/19 08:26:50;;;;;;;8.50;3.20;;;6.40;99.90;;;;;;5349944;26;20480;-70
2024/04/19 08:29:23;;;;;;;9.50;3.40;;;6.30;99.90;;;;;;5363153;26;20464;-69
2024/04/19 08:32:04;;;;;;;9.40;3.37;;;6.30;99.90;;;;;;5353695;26;20486;-70
2024/04/19 08:34:31;;;;;;;9.70;3.27;;;6.20;99.90;;;;;;5372641;26;20462;-71
2024/04/19 08:37:01;;;;;;;8.97;3.70;;;6.20;99.90;;;;;;5370401;26;20463;-70
2024/04/19 08:39:31;;;;;;;9.17;3.40;;;6.10;99.90;;;;;;5370489;26;20471;-70
2024/04/19 08:42:06;;;;;;;8.80;3.43;;;6.20;99.90;;;;;;5368965;26;20498;-70
2024/04/19 08:44:41;;;;;;;10.17;3.87;;;6.10;99.90;;;;;;5356317;26;20521;-68
2024/04/19 08:47:13;;;;;;;8.90;3.07;;;6.00;99.90;;;;;;5354680;26;20464;-69
2024/04/19 08:49:44;;;;;;;9.97;3.50;;;5.90;99.90;;;;;;5358852;26;20544;-70
2024/04/19 08:52:14;;;;;;;8.70;3.23;;;5.80;99.90;;;;;;5358676;26;21076;-70
2024/04/19 08:54:50;;;;;;;8.03;2.80;;;5.80;99.90;;;;;;5358389;26;20483;-71
2024/04/19 08:57:22;;;;;;;9.77;3.30;;;5.80;99.90;;;;;;5357810;26;20478;-70
2024/04/19 08:59:55;;;;;;;8.23;2.67;;;5.80;99.90;;;;;;5335284;26;21301;-70
2024/04/19 09:02:40;;;;;;;8.67;2.90;;;5.80;99.90;;;;;;5338892;26;20475;-69
2024/04/19 09:05:09;;;;;;;8.33;2.80;;;5.70;99.90;;;;;;5341426;26;20523;-70
2024/04/19 09:07:40;;;;;;;9.03;3.30;;;5.60;99.90;;;;;;5341009;26;20476;-70
2024/04/19 09:10:12;;;;;;;7.70;2.90;;;5.60;99.90;;;;;;5341708;26;20533;-70
2024/04/19 09:12:42;;;;;;;8.10;2.90;;;5.60;99.90;;;;;;5340557;26;20476;-70
2024/04/19 09:15:15;;;;;;;8.73;3.10;;;5.50;99.90;;;;;;5340734;26;20860;-70
2024/04/19 09:17:45;;;;;;;8.70;3.07;;;5.50;99.90;;;;;;5340775;26;20535;-70
2024/04/19 09:20:15;;;;;;;8.13;2.57;;;5.50;99.90;;;;;;5341271;26;20484;-70
2024/04/19 09:22:44;;;;;;;8.70;2.90;;;5.60;99.90;;;;;;5341814;26;20472;-69
2024/04/19 09:25:16;;;;;;;8.10;3.03;;;5.70;99.90;;;;;;5341652;26;21093;-70
2024/04/19 09:27:46;;;;;;;8.97;3.73;;;5.70;99.90;;;;;;5341420;26;20539;-68
2024/04/19 09:30:19;;;;;;;8.60;3.00;;;5.70;99.90;;;;;;5340101;26;21043;-69
2024/04/19 09:32:48;;;;;;;7.90;2.60;;;5.70;99.90;;;;;;5341449;26;20528;-70
2024/04/19 09:35:18;;;;;;;9.07;2.67;;;5.70;99.90;;;;;;5341601;26;20477;-70
2024/04/19 09:37:49;;;;;;;8.63;2.97;;;5.80;99.90;;;;;;5344882;26;20468;-69
2024/04/19 09:40:19;;;;;;;9.83;3.10;;;5.70;99.90;;;;;;5354034;26;20532;-69
2024/04/19 09:42:50;;;;;;;9.20;3.57;;;5.70;99.90;;;;;;5342410;26;20473;-70
2024/04/19 09:45:24;;;;;;;8.37;3.20;;;5.80;99.90;;;;;;5341395;26;20545;-69
2024/04/19 09:47:56;;;;;;;7.90;2.80;;;5.80;99.90;;;;;;5332607;26;21020;-68
2024/04/19 09:50:32;;;;;;;7.90;2.77;;;5.80;99.90;;;;;;5341081;26;20480;-70
2024/04/19 09:53:03;;;;;;;9.80;4.10;;;5.80;99.90;;;;;;5334943;26;20531;-69
2024/04/19 09:55:43;;;;;;;8.90;3.60;;;5.70;99.90;;;;;;5341558;26;20481;-69
2024/04/19 09:58:13;;;;;;;10.00;3.70;;;5.70;99.90;;;;;;5335793;26;20473;-69
2024/04/19 10:00:47;;;;;;;10.13;4.37;;;5.70;99.90;;;;;;5340242;26;20847;-70
2024/04/19 10:03:18;;;;;;;8.77;3.00;;;5.70;99.90;;;;;;5336082;26;20467;-70
2024/04/19 10:05:49;;;;;;;9.20;3.50;;;5.70;99.90;;;;;;5340307;26;20598;-70
2024/04/19 10:08:22;;;;;;;9.90;4.50;;;5.70;99.90;;;;;;5339007;26;20510;-71
2024/04/19 10:10:52;;;;;;;9.57;3.83;;;5.80;99.90;;;;;;5329971;26;20478;-71
2024/04/19 10:13:24;;;;;;;8.73;3.70;;;5.90;99.90;;;;;;5340413;26;20472;-70
2024/04/19 10:15:59;;;;;;;8.97;3.43;;;5.90;99.90;;;;;;5339906;26;20470;-70
2024/04/19 10:18:29;;;;;;;9.47;3.60;;;5.80;99.90;;;;;;5338919;26;20468;-69
2024/04/19 10:20:59;;;;;;;8.83;3.50;;;5.80;99.90;;;;;;5340152;26;21082;-71
2024/04/19 10:23:29;;;;;;;9.53;3.50;;;5.80;99.90;;;;;;5339553;26;20522;-70
2024/04/19 10:25:57;;;;;;;9.37;3.33;;;5.70;99.90;;;;;;5339660;26;21074;-70
2024/04/19 10:28:29;;;;;;;9.67;3.90;;;5.80;99.90;;;;;;5338415;26;20539;-69
2024/04/19 10:31:01;;;;;;;9.30;3.93;;;5.90;99.90;;;;;;5339433;26;20457;-70
2024/04/19 10:33:35;;;;;;;10.53;3.90;;;5.90;99.90;;;;;;5339682;26;20465;-69
2024/04/19 10:36:06;;;;;;;10.60;4.70;;;5.90;99.90;;;;;;5337234;26;20477;-71
2024/04/19 10:38:37;;;;;;;11.20;4.77;;;6.00;99.90;;;;;;5336758;26;20998;-71
2024/04/19 10:41:07;;;;;;;9.30;4.10;;;6.00;99.90;;;;;;5341987;26;20467;-70
2024/04/19 10:43:44;;;;;;;9.33;3.50;;;6.00;99.90;;;;;;5349385;26;20523;-70
2024/04/19 10:46:17;;;;;;;10.47;4.67;;;6.00;99.90;;;;;;5344877;26;20515;-69
2024/04/19 10:48:47;;;;;;;10.53;4.23;;;6.10;99.90;;;;;;5347551;26;20481;-69
2024/04/19 10:51:18;;;;;;;11.17;4.10;;;6.20;99.90;;;;;;5337246;26;20484;-70
2024/04/19 10:53:48;;;;;;;9.83;4.17;;;6.20;99.90;;;;;;5338983;26;20481;-70
2024/04/19 10:56:18;;;;;;;8.60;3.30;;;6.20;99.90;;;;;;5335960;26;20465;-70
2024/04/19 10:58:48;;;;;;;9.87;4.20;;;6.20;99.90;;;;;;5338950;26;20549;-69
2024/04/19 11:01:21;;;;;;;9.03;3.73;;;6.20;99.90;;;;;;5329370;26;20463;-69
2024/04/19 11:03:51;;;;;;;9.80;3.60;;;6.30;99.90;;;;;;5343472;26;20480;-70
2024/04/19 11:06:21;;;;;;;8.37;3.20;;;6.40;99.90;;;;;;5338476;26;20514;-69
2024/04/19 11:08:50;;;;;;;9.67;4.17;;;6.40;99.90;;;;;;5351493;26;20602;-70
2024/04/19 11:11:20;;;;;;;9.10;3.10;;;6.40;99.90;;;;;;5336108;26;20474;-68
2024/04/19 11:13:50;;;;;;;8.60;3.20;;;6.30;99.90;;;;;;5338249;26;20520;-68
2024/04/19 11:16:22;;;;;;;8.80;3.53;;;6.10;99.90;;;;;;5336067;26;20549;-69
2024/04/19 11:18:52;;;;;;;8.60;3.37;;;6.00;99.90;;;;;;5337282;26;20476;-70
2024/04/19 11:21:22;;;;;;;8.03;2.97;;;6.00;99.90;;;;;;5332594;26;20526;-70
2024/04/19 11:23:53;;;;;;;9.00;3.47;;;6.00;99.90;;;;;;5348301;26;20473;-70
2024/04/19 11:26:23;;;;;;;8.80;2.97;;;6.00;99.90;;;;;;5349853;26;20467;-70
2024/04/19 11:28:53;;;;;;;9.50;3.00;;;6.00;99.90;;;;;;5350121;26;20534;-69
2024/04/19 11:31:25;;;;;;;8.13;3.00;;;6.00;99.90;;;;;;5341664;26;20516;-70
2024/04/19 11:33:56;;;;;;;10.23;3.07;;;6.00;99.90;;;;;;5343212;26;20676;-70
2024/04/19 11:36:27;;;;;;;8.90;2.97;;;6.00;99.90;;;;;;5340482;26;20518;-69
2024/04/19 11:38:57;;;;;;;8.17;2.70;;;6.10;99.90;;;;;;5339868;26;21009;-69
2024/04/19 11:41:27;;;;;;;7.07;2.17;;;6.10;99.90;;;;;;5338505;26;20472;-70
2024/04/19 11:43:59;;;;;;;8.70;3.10;;;6.10;99.90;;;;;;5334120;26;20478;-68
2024/04/19 11:46:32;;;;;;;7.40;2.13;;;6.10;99.90;;;;;;5338207;26;20515;-68
2024/04/19 11:49:03;;;;;;;8.80;2.57;;;6.00;99.90;;;;;;5337527;26;20493;-68
2024/04/19 11:51:33;;;;;;;10.43;2.40;;;6.00;99.90;;;;;;5336896;26;20519;-68
2024/04/19 11:54:03;;;;;;;8.07;2.40;;;6.00;99.90;;;;;;5331988;26;20472;-68
2024/04/19 11:56:33;;;;;;;7.80;2.13;;;5.90;99.90;;;;;;5339350;26;20547;-70
2024/04/19 11:59:03;;;;;;;7.90;2.17;;;6.00;99.90;;;;;;5337450;26;20480;-70
2024/04/19 12:01:35;;;;;;;7.57;1.87;;;5.90;99.90;;;;;;5333120;26;20481;-70
2024/04/19 12:04:05;;;;;;;6.70;1.60;;;6.00;99.90;;;;;;5336528;26;20468;-70
2024/04/19 12:06:35;;;;;;;7.40;1.67;;;5.90;99.90;;;;;;5333091;26;20594;-70
2024/04/19 12:09:05;;;;;;;7.30;1.60;;;5.90;99.90;;;;;;5337174;26;20917;-70
2024/04/19 12:11:35;;;;;;;7.40;1.73;;;5.90;99.90;;;;;;5332979;26;20518;-69
2024/04/19 12:14:06;;;;;;;7.30;1.50;;;5.90;99.90;;;;;;5337726;26;20486;-70
2024/04/19 12:16:59;;;;;;;7.17;1.60;;;5.80;99.90;;;;;;5329598;26;20852;-70
2024/04/19 12:19:43;;;;;;;7.43;1.43;;;5.80;99.90;;;;;;5333801;26;20570;-69
2024/04/19 12:22:15;;;;;;;7.77;1.90;;;6.00;99.90;;;;;;5337575;26;20535;-67
2024/04/19 12:24:47;;;;;;;6.40;1.20;;;6.00;99.90;;;;;;5337158;26;20576;-69
2024/04/19 12:27:17;;;;;;;6.97;1.40;;;6.00;99.90;;;;;;5337306;26;21015;-69
2024/04/19 12:29:48;;;;;;;7.20;1.40;;;5.90;99.90;;;;;;5336313;26;20489;-69
2024/04/19 12:32:20;;;;;;;6.60;1.20;;;6.00;99.90;;;;;;5337397;26;20479;-69
2024/04/19 12:34:50;;;;;;;7.30;1.77;;;6.00;99.90;;;;;;5339306;26;20461;-71
2024/04/19 12:37:20;;;;;;;6.60;1.23;;;6.00;99.90;;;;;;5340891;26;20480;-68
2024/04/19 12:39:50;;;;;;;7.20;1.80;;;6.00;99.90;;;;;;5339800;26;20532;-69
2024/04/19 12:42:19;;;;;;;7.07;1.40;;;6.10;99.90;;;;;;5340938;26;20632;-69
2024/04/19 12:44:50;;;;;;;6.90;1.10;;;6.30;99.90;;;;;;5340960;26;20484;-68
2024/04/19 12:47:24;;;;;;;7.17;1.43;;;6.40;99.90;;;;;;5338778;26;20974;-70
2024/04/19 12:49:54;;;;;;;6.30;1.27;;;6.30;99.90;;;;;;5337126;26;21144;-70
2024/04/19 12:52:23;;;;;;;6.57;1.30;;;6.30;99.90;;;;;;5341381;26;20814;-70
2024/04/19 12:54:53;;;;;;;6.60;1.30;;;6.20;99.90;;;;;;5342872;26;20517;-71
2024/04/19 12:57:26;;;;;;;7.53;1.43;;;6.20;99.90;;;;;;5340995;26;20529;-71
2024/04/19 12:59:56;;;;;;;6.43;1.20;;;6.30;99.90;;;;;;5339918;26;20480;-70
2024/04/19 13:02:28;;;;;;;6.80;1.60;;;6.30;99.90;;;;;;5340784;26;20524;-70
2024/04/19 13:04:58;;;;;;;6.37;1.23;;;6.30;99.90;;;;;;5333125;26;20867;-70
2024/04/19 13:07:27;;;;;;;6.20;1.03;;;6.40;99.90;;;;;;5340449;26;20538;-70
2024/04/19 13:09:57;;;;;;;6.40;1.23;;;6.30;99.90;;;;;;5331043;26;20535;-70
2024/04/19 13:12:27;;;;;;;6.30;1.10;;;6.30;99.90;;;;;;5339982;26;20473;-70
2024/04/19 13:14:57;;;;;;;7.67;1.00;;;6.30;99.90;;;;;;5340741;26;20458;-71
2024/04/19 13:17:29;;;;;;;6.30;1.20;;;6.20;99.90;;;;;;5340199;26;20473;-69
2024/04/19 13:19:59;;;;;;;7.80;1.30;;;6.30;99.90;;;;;;5345986;26;20479;-70
2024/04/19 13:22:29;;;;;;;6.50;1.17;;;6.30;99.90;;;;;;5349152;26;20475;-70
2024/04/19 13:24:59;;;;;;;6.07;0.90;;;6.40;99.90;;;;;;5346555;26;20520;-71
2024/04/19 13:27:29;;;;;;;6.50;1.20;;;6.50;99.90;;;;;;5346967;26;20531;-69
2024/04/19 13:29:59;;;;;;;6.17;1.10;;;6.50;99.90;;;;;;5348189;26;20484;-70
2024/04/19 13:32:32;;;;;;;7.40;1.50;;;6.40;99.90;;;;;;5344301;26;20871;-70
2024/04/19 13:35:02;;;;;;;7.73;1.70;;;6.40;99.90;;;;;;5348153;26;20487;-71
2024/04/19 13:37:32;;;;;;;6.63;1.43;;;6.40;99.90;;;;;;5346281;26;20469;-70
2024/04/19 13:40:02;;;;;;;6.40;1.17;;;6.40;99.90;;;;;;5344948;26;20482;-69